createdAt,value
2018-10-21T00:02:22.935Z,91.23
2018-10-21T00:04:51.735Z,91.42
2018-10-21T00:07:20.345Z,90.98
2018-10-21T00:09:48.864Z,89.34
2018-10-21T00:12:17.449Z,89.44
2018-10-21T00:14:46.025Z,89.56
2018-10-21T00:17:14.655Z,90.75
2018-10-21T00:19:43.657Z,90.45
2018-10-21T00:22:12.297Z,91.49
2018-10-21T00:24:40.892Z,91.14
2018-10-21T00:27:09.848Z,90.04
2018-10-21T00:29:38.840Z,89.47
2018-10-21T00:32:07.500Z,90.20
2018-10-21T00:34:36.245Z,89.73
2018-10-21T00:37:05.267Z,90.73
2018-10-21T00:39:33.847Z,91.38
2018-10-21T00:42:02.583Z,91.15
2018-10-21T00:44:31.132Z,91.10
2018-10-21T00:46:59.781Z,91.79
2018-10-21T00:49:28.688Z,91.95
2018-10-21T00:51:57.220Z,90.97
2018-10-21T00:54:25.772Z,91.48
2018-10-21T00:56:54.586Z,91.15
2018-10-21T00:59:23.160Z,90.89
2018-10-21T01:01:51.736Z,91.16
2018-10-21T01:04:20.325Z,90.73
2018-10-21T01:06:48.884Z,90.83
2018-10-21T01:09:17.591Z,91.02
2018-10-21T01:11:46.364Z,90.79
2018-10-21T01:14:15.004Z,91.67
2018-10-21T01:16:43.589Z,92.68
2018-10-21T01:19:12.363Z,92.60
2018-10-21T01:21:40.969Z,92.59
2018-10-21T01:24:09.520Z,92.86
2018-10-21T01:26:38.163Z,92.72
2018-10-21T01:29:06.824Z,92.13
2018-10-21T01:31:35.417Z,91.34
2018-10-21T01:34:04.004Z,91.78
2018-10-21T01:36:32.716Z,91.51
2018-10-21T01:39:01.143Z,92.20
2018-10-21T01:41:29.970Z,91.60
2018-10-21T01:43:58.497Z,92.32
2018-10-21T01:46:27.168Z,93.39
2018-10-21T01:48:55.904Z,93.04
2018-10-21T01:51:24.557Z,92.07
2018-10-21T01:53:53.260Z,93.04
2018-10-21T01:56:22.124Z,93.10
2018-10-21T01:58:50.769Z,91.53
2018-10-21T02:01:19.456Z,90.93
2018-10-21T02:03:48.125Z,91.44
2018-10-21T02:06:16.744Z,90.82
2018-10-21T02:08:45.337Z,89.41
2018-10-21T02:11:13.976Z,90.68
2018-10-21T02:13:42.660Z,90.94
2018-10-21T02:16:11.182Z,89.75
2018-10-21T02:18:39.980Z,89.24
2018-10-21T02:21:08.583Z,89.59
2018-10-21T02:23:37.136Z,90.05
2018-10-21T02:26:05.982Z,90.83
2018-10-21T02:28:34.502Z,90.67
2018-10-21T02:31:03.157Z,91.15
2018-10-21T02:33:31.873Z,92.26
2018-10-21T02:36:00.454Z,92.06
2018-10-21T02:38:28.974Z,92.67
2018-10-21T02:41:39.025Z,92.71
2018-10-21T02:44:08.928Z,91.87
2018-10-21T02:46:38.378Z,90.45
2018-10-21T02:49:08.023Z,89.83
2018-10-21T02:51:36.657Z,91.57
2018-10-21T02:54:06.130Z,91.19
2018-10-21T02:56:34.791Z,91.13
2018-10-21T02:59:03.636Z,91.91
2018-10-21T03:01:32.285Z,91.80
2018-10-21T03:04:00.894Z,90.08
2018-10-21T03:06:29.469Z,90.77
2018-10-21T03:08:58.114Z,90.11
2018-10-21T03:11:26.651Z,91.14
2018-10-21T03:13:55.388Z,90.55
2018-10-21T03:16:24.193Z,91.15
2018-10-21T03:18:52.737Z,91.25
2018-10-21T03:21:21.377Z,90.59
2018-10-21T03:23:50.176Z,90.79
2018-10-21T03:26:18.784Z,92.46
2018-10-21T03:28:47.387Z,92.26
2018-10-21T03:31:16.001Z,92.42
2018-10-21T03:33:44.723Z,90.98
2018-10-21T03:36:13.199Z,90.70
2018-10-21T03:38:41.899Z,91.48
2018-10-21T03:41:10.537Z,91.83
2018-10-21T03:43:39.072Z,92.87
2018-10-21T03:46:07.837Z,92.13
2018-10-21T03:48:36.428Z,92.27
2018-10-21T03:51:05.028Z,91.69
2018-10-21T03:53:33.660Z,92.23
2018-10-21T03:56:02.200Z,91.93
2018-10-21T03:58:30.808Z,91.74
2018-10-21T04:00:59.601Z,91.64
2018-10-21T04:03:28.113Z,91.76
2018-10-21T04:05:56.696Z,90.72
2018-10-21T04:08:25.637Z,90.83
2018-10-21T04:10:54.149Z,90.75
2018-10-21T04:13:22.774Z,90.71
2018-10-21T04:15:51.328Z,90.11
2018-10-21T04:18:19.977Z,89.73
2018-10-21T04:20:48.516Z,90.47
2018-10-21T04:23:17.135Z,90.86
2018-10-21T04:25:45.673Z,91.01
2018-10-21T04:28:14.416Z,92.04
2018-10-21T04:30:43.718Z,91.02
2018-10-21T04:33:46.014Z,91.22
2018-10-21T04:36:18.668Z,91.47
2018-10-21T04:40:04.347Z,90.55
2018-10-21T04:42:33.225Z,91.69
2018-10-21T04:45:02.306Z,91.59
2018-10-21T04:47:31.309Z,91.30
2018-10-21T04:50:00.131Z,91.57
2018-10-21T04:52:29.913Z,91.82
2018-10-21T04:55:03.805Z,91.89
2018-10-21T04:57:32.400Z,91.31
2018-10-21T05:00:01.020Z,90.28
2018-10-21T05:02:30.783Z,90.49
2018-10-21T05:04:59.759Z,89.86
2018-10-21T05:07:28.417Z,89.94
2018-10-21T05:09:57.126Z,90.85
2018-10-21T05:12:25.732Z,90.81
2018-10-21T05:14:54.460Z,92.19
2018-10-21T05:17:23.265Z,92.87
2018-10-21T05:19:51.828Z,92.49
2018-10-21T05:22:20.381Z,92.70
2018-10-21T05:24:49.184Z,92.06
2018-10-21T05:27:17.824Z,92.14
2018-10-21T05:29:46.451Z,91.53
2018-10-21T05:32:15.178Z,91.17
2018-10-21T05:34:43.878Z,92.04
2018-10-21T05:37:12.516Z,91.04
2018-10-21T05:39:41.300Z,91.25
2018-10-21T05:42:10.007Z,92.38
2018-10-21T05:44:38.628Z,92.01
2018-10-21T05:47:07.250Z,92.13
2018-10-21T05:49:35.800Z,92.15
2018-10-21T05:52:04.471Z,92.04
2018-10-21T05:54:37.356Z,92.29
2018-10-21T05:57:06.515Z,92.00
2018-10-21T05:59:35.109Z,91.90
2018-10-21T06:02:03.900Z,91.87
2018-10-21T06:04:33.063Z,91.81
2018-10-21T06:07:01.692Z,91.41
2018-10-21T06:09:30.666Z,91.67
2018-10-21T06:11:59.308Z,90.98
2018-10-21T06:14:27.908Z,90.96
2018-10-21T06:16:59.720Z,91.82
2018-10-21T06:19:33.901Z,91.30
2018-10-21T06:22:02.472Z,91.99
2018-10-21T06:24:31.039Z,92.19
2018-10-21T06:26:59.676Z,91.40
2018-10-21T06:29:28.528Z,92.45
2018-10-21T06:31:57.128Z,92.24
2018-10-21T06:34:26.049Z,92.13
2018-10-21T06:36:54.958Z,92.40
2018-10-21T06:39:23.585Z,92.55
2018-10-21T06:41:52.804Z,93.27
2018-10-21T06:44:21.665Z,93.01
2018-10-21T06:46:50.325Z,93.81
2018-10-21T06:49:18.924Z,93.66
2018-10-21T06:51:47.744Z,94.30
2018-10-21T06:54:16.456Z,93.92
2018-10-21T06:56:45.168Z,93.61
2018-10-21T06:59:13.737Z,94.51
2018-10-21T07:01:42.328Z,94.83
2018-10-21T07:04:11.025Z,94.45
2018-10-21T07:06:40.035Z,94.09
2018-10-21T07:09:08.680Z,93.12
2018-10-21T07:11:37.421Z,93.27
2018-10-21T07:14:06.109Z,92.66
2018-10-21T07:16:34.954Z,92.06
2018-10-21T07:19:03.460Z,92.39
2018-10-21T07:21:32.140Z,91.98
2018-10-21T07:24:00.703Z,91.74
2018-10-21T07:26:29.269Z,91.74
2018-10-21T07:28:57.960Z,92.32
2018-10-21T07:31:26.729Z,91.42
2018-10-21T07:33:55.404Z,91.43
2018-10-21T07:36:24.165Z,90.81
2018-10-21T07:38:52.909Z,90.83
2018-10-21T07:41:21.492Z,90.43
2018-10-21T07:43:50.517Z,90.11
2018-10-21T07:46:19.260Z,89.27
2018-10-21T07:48:47.746Z,89.40
2018-10-21T07:51:16.623Z,89.73
2018-10-21T07:53:45.355Z,88.89
2018-10-21T07:56:13.973Z,88.90
2018-10-21T07:58:42.549Z,88.75
2018-10-21T08:01:11.128Z,89.83
2018-10-21T08:03:39.727Z,89.70
2018-10-21T08:07:28.244Z,90.00
2018-10-21T08:09:56.801Z,90.46
2018-10-21T08:12:25.521Z,90.82
2018-10-21T08:14:54.166Z,89.67
2018-10-21T08:17:22.840Z,90.12
2018-10-21T08:19:51.605Z,89.89
2018-10-21T08:22:20.289Z,88.94
2018-10-21T08:24:48.800Z,88.73
2018-10-21T08:27:17.466Z,89.54
2018-10-21T08:29:46.063Z,89.22
2018-10-21T08:32:14.849Z,88.79
2018-10-21T08:34:43.417Z,88.34
2018-10-21T08:37:12.257Z,88.34
2018-10-21T08:39:40.893Z,86.06
2018-10-21T08:42:09.520Z,87.21
2018-10-21T08:44:38.236Z,86.64
2018-10-21T08:47:06.888Z,85.29
2018-10-21T08:49:35.646Z,86.06
2018-10-21T08:52:04.386Z,85.54
2018-10-21T08:54:32.976Z,84.64
2018-10-21T08:57:01.627Z,84.84
2018-10-21T08:59:30.338Z,83.92
2018-10-21T09:01:58.991Z,82.50
2018-10-21T09:04:27.592Z,83.49
2018-10-21T09:06:56.529Z,83.16
2018-10-21T09:09:25.064Z,82.61
2018-10-21T09:11:53.830Z,81.59
2018-10-21T09:14:24.644Z,80.99
2018-10-21T09:16:54.046Z,80.77
2018-10-21T09:19:23.013Z,80.69
2018-10-21T09:21:52.433Z,81.10
2018-10-21T09:24:20.997Z,80.52
2018-10-21T09:26:50.581Z,78.50
2018-10-21T09:29:19.208Z,78.77
2018-10-21T09:31:47.873Z,79.31
2018-10-21T09:34:17.077Z,78.25
2018-10-21T09:36:45.713Z,77.97
2018-10-21T09:39:15.447Z,78.17
2018-10-21T09:41:44.747Z,77.04
2018-10-21T09:44:13.393Z,77.16
2018-10-21T09:46:42.742Z,75.23
2018-10-21T09:49:12.509Z,74.78
2018-10-21T09:51:41.489Z,75.32
2018-10-21T09:54:10.099Z,75.02
2018-10-21T09:56:39.208Z,75.97
2018-10-21T09:59:08.816Z,75.64
2018-10-21T10:01:42.868Z,75.26
2018-10-21T10:04:11.597Z,74.70
2018-10-21T10:06:40.228Z,73.17
2018-10-21T10:09:11.621Z,72.69
2018-10-21T10:11:40.486Z,73.26
2018-10-21T10:14:09.406Z,72.42
2018-10-21T10:16:38.473Z,71.84
2018-10-21T10:19:07.443Z,71.69
2018-10-21T10:21:36.580Z,70.68
2018-10-21T10:24:05.341Z,70.01
2018-10-21T10:26:33.924Z,70.43
2018-10-21T10:29:02.626Z,69.48
2018-10-21T10:31:31.239Z,70.22
2018-10-21T10:33:59.872Z,68.87
2018-10-21T10:36:28.759Z,68.06
2018-10-21T10:38:57.723Z,66.80
2018-10-21T10:41:26.409Z,65.35
2018-10-21T10:43:55.114Z,64.84
2018-10-21T10:46:23.926Z,64.82
2018-10-21T10:48:52.478Z,64.46
2018-10-21T10:51:21.018Z,63.89
2018-10-21T10:53:49.806Z,63.23
2018-10-21T10:56:18.459Z,63.57
2018-10-21T10:58:47.012Z,62.83
2018-10-21T11:01:15.727Z,60.98
2018-10-21T11:03:44.949Z,61.66
2018-10-21T11:06:13.652Z,60.73
2018-10-21T11:08:42.305Z,60.97
2018-10-21T11:11:10.897Z,60.90
2018-10-21T11:13:39.470Z,60.30
2018-10-21T11:16:08.655Z,60.45
2018-10-21T11:18:37.271Z,60.87
2018-10-21T11:21:06.220Z,60.18
2018-10-21T11:23:34.998Z,59.33
2018-10-21T11:26:04.001Z,59.57
2018-10-21T11:28:32.548Z,58.15
2018-10-21T11:31:01.400Z,59.67
2018-10-21T11:33:29.944Z,57.48
2018-10-21T11:35:58.593Z,55.63
2018-10-21T11:38:27.303Z,56.63
2018-10-21T11:40:55.944Z,56.41
2018-10-21T11:43:24.852Z,56.50
2018-10-21T11:45:53.585Z,55.65
2018-10-21T11:48:22.148Z,54.73
2018-10-21T11:50:50.920Z,54.85
2018-10-21T11:53:20.536Z,55.06
2018-10-21T11:55:49.210Z,54.02
2018-10-21T11:58:17.767Z,53.01
2018-10-21T12:00:46.967Z,52.04
2018-10-21T12:03:15.680Z,52.89
2018-10-21T12:05:44.592Z,52.59
2018-10-21T12:08:13.810Z,52.42
2018-10-21T12:10:42.429Z,52.22
2018-10-21T12:13:11.059Z,51.77
2018-10-21T12:15:39.837Z,51.12
2018-10-21T12:18:08.900Z,50.91
2018-10-21T12:20:38.276Z,52.03
2018-10-21T12:23:07.234Z,52.61
2018-10-21T12:25:35.827Z,50.52
2018-10-21T12:28:04.382Z,51.13
2018-10-21T12:30:33.237Z,51.13
2018-10-21T12:33:02.297Z,51.76
2018-10-21T12:35:30.852Z,51.08
2018-10-21T12:37:59.544Z,51.49
2018-10-21T12:40:28.138Z,50.58
2018-10-21T12:42:56.789Z,50.50
2018-10-21T12:45:25.596Z,50.89
2018-10-21T12:47:54.109Z,50.79
2018-10-21T12:50:22.664Z,50.46
2018-10-21T12:52:51.305Z,50.55
2018-10-21T12:55:19.982Z,50.83
2018-10-21T12:57:48.589Z,50.59
2018-10-21T13:00:17.324Z,50.37
2018-10-21T13:02:45.979Z,50.61
2018-10-21T13:05:14.552Z,51.23
2018-10-21T13:07:43.508Z,49.97
2018-10-21T13:10:12.294Z,49.98
2018-10-21T13:12:40.778Z,50.15
2018-10-21T13:15:09.377Z,49.43
2018-10-21T13:17:37.958Z,49.76
2018-10-21T13:20:06.700Z,50.00
2018-10-21T13:22:35.392Z,49.57
2018-10-21T13:25:04.025Z,50.16
2018-10-21T13:27:32.618Z,50.26
2018-10-21T13:30:01.462Z,49.10
2018-10-21T13:32:30.041Z,49.27
2018-10-21T13:34:58.729Z,49.91
2018-10-21T13:37:27.382Z,50.00
2018-10-21T13:39:55.983Z,49.29
2018-10-21T13:42:24.532Z,49.92
2018-10-21T13:44:53.281Z,49.75
2018-10-21T13:47:21.873Z,49.83
2018-10-21T13:49:50.598Z,50.18
2018-10-21T13:52:19.516Z,51.39
2018-10-21T13:54:48.278Z,50.29
2018-10-21T13:57:16.816Z,50.36
2018-10-21T13:59:45.462Z,50.81
2018-10-21T14:02:13.996Z,50.60
2018-10-21T14:04:42.627Z,50.66
2018-10-21T14:07:11.360Z,49.95
2018-10-21T14:09:39.952Z,50.69
2018-10-21T14:12:08.524Z,50.95
2018-10-21T14:14:37.336Z,51.18
2018-10-21T14:17:05.880Z,51.75
2018-10-21T14:19:34.653Z,50.92
2018-10-21T14:22:03.316Z,51.29
2018-10-21T14:24:31.940Z,51.27
2018-10-21T14:27:00.457Z,51.50
2018-10-21T14:29:29.379Z,51.25
2018-10-21T14:31:58.056Z,51.09
2018-10-21T14:34:26.700Z,50.75
2018-10-21T14:36:55.637Z,51.27
2018-10-21T14:39:24.374Z,51.37
2018-10-21T14:41:52.916Z,51.75
2018-10-21T14:44:21.672Z,52.75
2018-10-21T14:46:50.285Z,52.15
2018-10-21T14:49:18.864Z,52.55
2018-10-21T14:51:47.635Z,53.08
2018-10-21T14:54:16.269Z,52.06
2018-10-21T14:56:44.915Z,52.51
2018-10-21T14:59:13.668Z,53.13
2018-10-21T15:01:42.301Z,53.32
2018-10-21T15:04:10.946Z,52.90
2018-10-21T15:06:39.642Z,53.40
2018-10-21T15:09:12.379Z,53.55
2018-10-21T15:11:41.437Z,53.23
2018-10-21T15:14:10.943Z,52.82
2018-10-21T15:16:40.005Z,53.16
2018-10-21T15:19:08.596Z,52.95
2018-10-21T15:21:37.708Z,53.36
2018-10-21T15:24:06.341Z,54.04
2018-10-21T15:26:35.125Z,53.28
2018-10-21T15:29:03.740Z,54.24
2018-10-21T15:31:32.312Z,53.89
2018-10-21T15:34:01.177Z,53.93
2018-10-21T15:36:29.777Z,54.08
2018-10-21T15:38:58.445Z,53.81
2018-10-21T15:41:27.040Z,54.35
2018-10-21T15:43:55.785Z,53.78
2018-10-21T15:46:24.372Z,53.72
2018-10-21T15:48:53.346Z,54.39
2018-10-21T15:51:21.870Z,54.73
2018-10-21T15:53:50.431Z,54.57
2018-10-21T15:56:19.235Z,55.18
2018-10-21T15:58:47.860Z,54.89
2018-10-21T16:01:16.460Z,55.85
2018-10-21T16:03:45.172Z,55.51
2018-10-21T16:06:13.781Z,56.37
2018-10-21T16:08:42.340Z,57.15
2018-10-21T16:11:10.925Z,57.51
2018-10-21T16:13:39.970Z,57.62
2018-10-21T16:16:08.609Z,58.19
2018-10-21T16:18:37.104Z,58.54
2018-10-21T16:21:05.908Z,59.46
2018-10-21T16:23:34.746Z,60.82
2018-10-21T16:26:03.818Z,61.45
2018-10-21T16:28:32.280Z,61.28
2018-10-21T16:31:01.739Z,62.49
2018-10-21T16:33:30.325Z,62.72
2018-10-21T16:35:58.937Z,64.37
2018-10-21T16:38:27.634Z,64.14
2018-10-21T16:40:56.180Z,65.41
2018-10-21T16:43:24.721Z,65.02
2018-10-21T16:45:53.266Z,65.72
2018-10-21T16:48:22.309Z,66.60
2018-10-21T16:50:50.948Z,68.03
2018-10-21T16:53:19.479Z,68.69
2018-10-21T16:55:48.072Z,68.07
2018-10-21T16:58:16.745Z,68.15
2018-10-21T17:00:45.545Z,68.83
2018-10-21T17:03:14.236Z,68.40
2018-10-21T17:05:42.904Z,68.77
2018-10-21T17:08:11.552Z,68.81
2018-10-21T17:10:40.820Z,69.52
2018-10-21T17:13:09.153Z,69.59
2018-10-21T17:15:37.805Z,68.70
2018-10-21T17:18:06.476Z,68.32
2018-10-21T17:20:35.038Z,67.63
2018-10-21T17:23:03.625Z,68.13
2018-10-21T17:25:32.348Z,67.88
2018-10-21T17:28:01.085Z,67.45
2018-10-21T17:30:29.697Z,67.01
2018-10-21T17:32:58.332Z,68.75
2018-10-21T17:35:26.956Z,70.88
2018-10-21T17:37:55.520Z,71.42
2018-10-21T17:40:24.227Z,72.78
2018-10-21T17:42:52.868Z,72.29
2018-10-21T17:45:21.521Z,72.92
2018-10-21T17:47:50.276Z,71.94
2018-10-21T17:50:19.013Z,73.40
2018-10-21T17:52:47.651Z,73.73
2018-10-21T17:55:16.269Z,74.27
2018-10-21T17:57:44.891Z,74.29
2018-10-21T18:00:14.477Z,74.46
2018-10-21T18:02:43.166Z,75.44
2018-10-21T18:05:13.362Z,75.92
2018-10-21T18:07:42.405Z,76.15
2018-10-21T18:10:11.760Z,76.61
2018-10-21T18:12:40.337Z,76.63
2018-10-21T18:15:10.069Z,76.83
2018-10-21T18:17:39.856Z,77.30
2018-10-21T18:20:09.782Z,77.22
2018-10-21T18:22:38.480Z,77.44
2018-10-21T18:25:08.165Z,77.24
2018-10-21T18:27:36.810Z,77.58
2018-10-21T18:30:06.311Z,78.11
2018-10-21T18:32:34.825Z,77.75
2018-10-21T18:35:03.509Z,77.87
2018-10-21T18:37:32.130Z,78.46
2018-10-21T18:40:00.687Z,78.62
2018-10-21T18:42:29.417Z,79.40
2018-10-21T18:44:58.078Z,79.50
2018-10-21T18:47:26.617Z,80.06
2018-10-21T18:49:55.433Z,79.22
2018-10-21T18:52:24.044Z,79.79
2018-10-21T18:54:52.993Z,78.92
2018-10-21T18:57:21.973Z,79.40
2018-10-21T18:59:50.577Z,80.28
2018-10-21T19:02:19.142Z,81.41
2018-10-21T19:04:48.309Z,81.36
2018-10-21T19:07:17.047Z,81.33
2018-10-21T19:09:45.544Z,81.28
2018-10-21T19:12:14.100Z,81.76
2018-10-21T19:14:42.742Z,82.76
2018-10-21T19:17:11.345Z,82.39
2018-10-21T19:19:40.071Z,82.22
2018-10-21T19:22:08.699Z,81.56
2018-10-21T19:24:37.261Z,81.72
2018-10-21T19:27:06.410Z,82.07
2018-10-21T19:29:34.990Z,81.63
2018-10-21T19:32:03.558Z,81.63
2018-10-21T19:34:32.189Z,82.40
2018-10-21T19:37:01.031Z,82.65
2018-10-21T19:39:30.036Z,82.64
2018-10-21T19:41:58.784Z,83.19
2018-10-21T19:44:27.404Z,83.48
2018-10-21T19:46:56.053Z,83.80
2018-10-21T19:49:25.089Z,83.84
2018-10-21T19:51:53.630Z,84.47
2018-10-21T19:54:22.241Z,83.61
2018-10-21T19:56:50.793Z,84.93
2018-10-21T19:59:19.445Z,84.55
2018-10-21T20:01:48.011Z,85.08
2018-10-21T20:04:16.892Z,83.97
2018-10-21T20:06:45.348Z,83.54
2018-10-21T20:09:13.896Z,84.81
2018-10-21T20:11:42.550Z,84.31
2018-10-21T20:14:11.118Z,84.93
2018-10-21T20:16:39.684Z,85.99
2018-10-21T20:19:08.498Z,85.88
2018-10-21T20:21:37.030Z,85.40
2018-10-21T20:24:05.924Z,86.51
2018-10-21T20:26:34.568Z,87.28
2018-10-21T20:29:03.148Z,86.40
2018-10-21T20:31:31.725Z,87.02
2018-10-21T20:34:00.459Z,85.25
2018-10-21T20:36:29.043Z,85.35
2018-10-21T20:38:57.597Z,85.53
2018-10-21T20:41:26.197Z,85.56
2018-10-21T20:43:54.774Z,86.69
2018-10-21T20:46:23.356Z,86.04
2018-10-21T20:48:52.028Z,85.16
2018-10-21T20:51:20.756Z,87.13
2018-10-21T20:53:49.249Z,86.64
2018-10-21T20:56:17.940Z,86.06
2018-10-21T20:58:46.569Z,86.45
2018-10-21T21:01:15.133Z,86.37
2018-10-21T21:03:44.045Z,87.54
2018-10-21T21:06:12.733Z,86.23
2018-10-21T21:08:41.194Z,86.60
2018-10-21T21:11:10.709Z,86.53
2018-10-21T21:13:39.246Z,85.89
2018-10-21T21:16:08.145Z,87.18
2018-10-21T21:18:36.828Z,86.79
2018-10-21T21:21:05.380Z,87.97
2018-10-21T21:23:33.953Z,87.84
2018-10-21T21:26:02.581Z,87.25
2018-10-21T21:28:31.140Z,87.43
2018-10-21T21:30:59.757Z,87.20
2018-10-21T21:33:28.577Z,86.70
2018-10-21T21:35:57.176Z,87.12
2018-10-21T21:38:25.835Z,86.65
2018-10-21T21:40:54.445Z,87.23
2018-10-21T21:43:23.087Z,87.29
2018-10-21T21:45:51.636Z,86.91
2018-10-21T21:48:20.325Z,86.79
2018-10-21T21:50:48.920Z,86.50
2018-10-21T21:53:17.424Z,86.26
2018-10-21T21:55:46.029Z,86.03
2018-10-21T21:58:14.681Z,85.95
2018-10-21T22:00:43.183Z,86.69
2018-10-21T22:03:11.864Z,86.86
2018-10-21T22:05:40.425Z,87.98
2018-10-21T22:08:08.952Z,86.85
2018-10-21T22:10:37.609Z,87.63
2018-10-21T22:13:06.413Z,87.75
2018-10-21T22:15:35.101Z,88.79
2018-10-21T22:18:03.888Z,87.72
2018-10-21T22:20:32.426Z,88.51
2018-10-21T22:23:01.091Z,88.62
2018-10-21T22:25:29.824Z,88.76
2018-10-21T22:27:58.425Z,88.60
2018-10-21T22:30:26.924Z,88.06
2018-10-21T22:32:55.637Z,87.57
2018-10-21T22:35:24.381Z,88.12
2018-10-21T22:37:52.972Z,88.11
2018-10-21T22:40:21.655Z,88.48
2018-10-21T22:42:50.280Z,89.20
2018-10-21T22:45:18.912Z,88.59
2018-10-21T22:47:47.600Z,87.70
2018-10-21T22:50:16.170Z,87.55
2018-10-21T22:52:44.748Z,88.30
2018-10-21T22:55:13.728Z,87.90
2018-10-21T22:57:42.252Z,88.79
2018-10-21T23:00:10.971Z,88.04
2018-10-21T23:02:39.641Z,89.02
2018-10-21T23:05:08.876Z,89.10
2018-10-21T23:07:38.409Z,88.66
2018-10-21T23:10:07.377Z,88.97
2018-10-21T23:12:35.905Z,87.94
2018-10-21T23:15:04.528Z,87.82
2018-10-21T23:17:33.120Z,88.02
2018-10-21T23:20:01.768Z,88.90
2018-10-21T23:22:30.364Z,89.75
2018-10-21T23:24:59.005Z,90.95
2018-10-21T23:27:27.641Z,89.09
2018-10-21T23:29:56.179Z,89.20
2018-10-21T23:32:25.000Z,89.00
2018-10-21T23:34:53.549Z,88.93
2018-10-21T23:37:22.244Z,89.46
2018-10-21T23:39:51.409Z,89.20
2018-10-21T23:42:19.949Z,89.38
2018-10-21T23:44:48.513Z,89.15
2018-10-21T23:47:17.392Z,88.91
2018-10-21T23:49:46.061Z,89.69
2018-10-21T23:52:14.741Z,89.12
2018-10-21T23:54:43.521Z,88.78
2018-10-21T23:57:12.160Z,90.46
